createdAt,value
2023-04-26T00:00:06.194Z,7.33
2023-04-26T00:02:34.498Z,7.37
2023-04-26T00:05:05.379Z,6.13
2023-04-26T00:07:34.023Z,6.23
2023-04-26T00:10:02.456Z,6.60
2023-04-26T00:12:30.581Z,7.10
2023-04-26T00:15:02.753Z,7.20
2023-04-26T00:17:31.592Z,7.57
2023-04-26T00:19:59.995Z,7.13
2023-04-26T00:22:28.889Z,7.83
2023-04-26T00:24:57.277Z,7.30
2023-04-26T00:27:25.374Z,7.20
2023-04-26T00:29:53.562Z,7.43
2023-04-26T00:32:25.694Z,6.83
2023-04-26T00:34:53.745Z,6.30
2023-04-26T00:37:23.308Z,6.40
2023-04-26T00:39:51.403Z,7.07
2023-04-26T00:42:20.713Z,7.10
2023-04-26T00:44:50.374Z,5.30
2023-04-26T00:47:18.783Z,6.20
2023-04-26T00:49:48.284Z,5.97
2023-04-26T00:52:16.911Z,5.13
2023-04-26T00:54:45.572Z,6.10
2023-04-26T00:57:13.750Z,6.63
2023-04-26T00:59:42.196Z,6.27
2023-04-26T01:02:10.346Z,6.10
2023-04-26T01:04:40.792Z,6.00
2023-04-26T01:07:10.329Z,6.87
2023-04-26T01:09:38.499Z,6.47
2023-04-26T01:12:08.610Z,6.77
2023-04-26T01:14:37.938Z,5.50
2023-04-26T01:17:06.774Z,5.60
2023-04-26T01:19:37.775Z,6.30
2023-04-26T01:22:05.772Z,5.30
2023-04-26T01:24:37.377Z,6.50
2023-04-26T01:27:05.595Z,6.20
2023-04-26T01:29:36.695Z,6.43
2023-04-26T07:16:22.591Z,5.53
2023-04-26T07:18:53.132Z,5.70
2023-04-26T07:21:21.235Z,4.90
2023-04-26T07:23:49.482Z,5.30
2023-04-26T07:26:18.398Z,4.88
2023-04-26T07:28:46.452Z,5.53
2023-04-26T07:31:14.434Z,5.30
2023-04-26T07:33:43.109Z,4.70
2023-04-26T07:36:12.948Z,4.57
2023-04-26T07:38:41.195Z,4.22
2023-04-26T07:41:10.358Z,4.70
2023-04-26T07:43:39.623Z,4.95
2023-04-26T07:46:07.808Z,4.50
2023-04-26T07:48:35.823Z,4.72
2023-04-26T07:51:11.330Z,5.32
2023-04-26T07:53:41.253Z,5.47
2023-04-26T07:56:11.462Z,5.83
2023-04-26T07:58:41.736Z,5.50
2023-04-26T08:01:11.896Z,6.13
2023-04-26T08:03:40.001Z,5.43
2023-04-26T08:06:08.849Z,4.95
2023-04-26T08:08:42.805Z,5.43
2023-04-26T08:11:12.470Z,5.15
2023-04-26T08:13:40.534Z,5.70
2023-04-26T08:16:08.718Z,5.30
2023-04-26T08:18:36.860Z,5.18
2023-04-26T08:21:05.136Z,5.55
2023-04-26T08:23:35.918Z,5.80
2023-04-26T08:26:04.009Z,5.13
2023-04-26T08:28:45.567Z,5.80
2023-04-26T08:31:16.999Z,4.80
2023-04-26T08:33:45.602Z,5.20
2023-04-26T08:36:15.646Z,5.07
2023-04-26T08:38:43.601Z,4.70
2023-04-26T08:41:14.917Z,5.43
2023-04-26T08:43:44.894Z,4.67
2023-04-26T08:46:20.103Z,4.90
2023-04-26T08:48:55.887Z,4.90
2023-04-26T08:51:24.770Z,4.13
2023-04-26T08:53:54.744Z,4.63
2023-04-26T08:56:24.390Z,4.27
2023-04-26T08:58:54.686Z,4.20
2023-04-26T09:01:26.145Z,4.50
2023-04-26T09:03:56.711Z,4.70
2023-04-26T09:06:28.129Z,5.00
2023-04-26T09:08:58.686Z,4.53
2023-04-26T09:11:26.699Z,4.00
2023-04-26T09:13:58.405Z,3.90
2023-04-26T09:16:36.899Z,4.20
2023-04-26T09:19:04.972Z,4.30
2023-04-26T09:21:33.331Z,3.67
2023-04-26T09:24:04.514Z,4.33
2023-04-26T09:26:32.578Z,3.83
2023-04-26T09:29:18.940Z,3.47
2023-04-26T09:31:49.778Z,4.07
2023-04-26T09:34:18.097Z,3.73
2023-04-26T09:36:55.318Z,3.60
2023-04-26T09:39:34.370Z,3.87
2023-04-26T09:42:05.049Z,3.80
2023-04-26T09:44:34.812Z,3.33
2023-04-26T09:47:05.259Z,3.00
2023-04-26T09:49:35.072Z,4.23
2023-04-26T09:52:07.348Z,3.73
2023-04-26T09:54:44.793Z,4.40
2023-04-26T09:57:13.716Z,3.50
2023-04-26T09:59:47.375Z,4.03
2023-04-26T10:02:18.005Z,3.00
2023-04-26T10:04:48.130Z,3.60
2023-04-26T10:07:17.730Z,2.90
2023-04-26T10:09:47.076Z,3.20
2023-04-26T10:12:16.475Z,3.00
2023-04-26T10:14:47.054Z,3.30
2023-04-26T10:17:15.456Z,3.47
2023-04-26T10:19:46.604Z,3.40
2023-04-26T10:22:18.525Z,2.63
2023-04-26T10:24:47.146Z,4.03
2023-04-26T10:27:15.121Z,3.87
2023-04-26T10:30:10.647Z,3.23
2023-04-26T10:33:18.875Z,3.60
2023-04-26T10:36:05.743Z,3.13
2023-04-26T10:38:34.736Z,4.57
2023-04-26T10:41:32.113Z,8.63
2023-04-26T10:44:02.058Z,18.13
2023-04-26T10:46:39.608Z,4.03
2023-04-26T10:49:25.752Z,3.60
2023-04-26T10:52:13.545Z,3.50
2023-04-26T10:54:52.492Z,3.90
2023-04-26T10:57:21.598Z,3.30
2023-04-26T11:00:35.172Z,3.55
2023-04-26T11:03:13.260Z,3.65
2023-04-26T11:05:55.950Z,3.63
2023-04-26T11:08:30.452Z,3.30
2023-04-26T11:11:14.326Z,3.50
2023-04-26T11:13:45.548Z,3.20
2023-04-26T11:16:17.100Z,4.43
2023-04-26T11:18:48.525Z,3.33
2023-04-26T11:21:19.171Z,3.25
2023-04-26T11:23:54.909Z,3.22
2023-04-26T11:26:24.757Z,3.65
2023-04-26T11:28:53.314Z,3.35
2023-04-26T11:31:22.494Z,3.70
2023-04-26T11:33:54.183Z,3.95
2023-04-26T11:36:24.487Z,3.47
2023-04-26T11:38:52.620Z,4.05
2023-04-26T11:41:26.104Z,3.50
2023-04-26T11:43:55.697Z,3.83
2023-04-26T11:46:27.283Z,3.70
2023-04-26T11:49:00.723Z,3.50
2023-04-26T11:51:32.206Z,3.70
2023-04-26T11:54:06.932Z,3.30
2023-04-26T11:56:51.129Z,3.15
2023-04-26T11:59:39.035Z,3.40
2023-04-26T12:02:11.944Z,3.03
2023-04-26T12:04:45.970Z,3.38
2023-04-26T12:07:23.147Z,3.53
2023-04-26T12:10:00.306Z,3.15
2023-04-26T12:12:29.231Z,3.47
2023-04-26T12:14:57.756Z,3.28
2023-04-26T12:17:29.943Z,3.55
2023-04-26T12:19:59.533Z,4.18
2023-04-26T12:22:27.837Z,3.65
2023-04-26T12:25:06.090Z,3.42
2023-04-26T12:27:34.706Z,3.78
2023-04-26T12:30:03.781Z,3.83
2023-04-26T12:32:31.798Z,3.95
2023-04-26T12:35:01.275Z,3.42
2023-04-26T12:37:32.460Z,3.28
2023-04-26T12:40:01.882Z,3.88
2023-04-26T12:42:37.152Z,3.30
2023-04-26T12:45:06.652Z,3.65
2023-04-26T12:47:35.653Z,3.65
2023-04-26T12:50:06.345Z,2.90
2023-04-26T12:52:34.808Z,3.05
2023-04-26T12:55:05.532Z,2.65
2023-04-26T12:57:41.507Z,2.55
2023-04-26T13:00:16.316Z,3.45
2023-04-26T13:02:45.909Z,3.22
2023-04-26T13:05:18.371Z,3.30
2023-04-26T13:07:48.396Z,2.70
2023-04-26T13:10:20.422Z,3.08
2023-04-26T13:12:59.012Z,3.30
2023-04-26T13:15:27.477Z,3.35
2023-04-26T13:17:55.671Z,3.50
2023-04-26T13:20:28.900Z,3.40
2023-04-26T13:22:59.011Z,3.72
2023-04-26T13:25:29.107Z,3.42
2023-04-26T13:27:58.800Z,3.95
2023-04-26T13:30:31.500Z,3.80
2023-04-26T13:33:01.239Z,3.45
2023-04-26T13:35:31.523Z,3.88
2023-04-26T13:38:00.331Z,4.25
2023-04-26T13:40:39.648Z,3.95
2023-04-26T13:43:09.053Z,3.67
2023-04-26T13:45:39.003Z,3.55
2023-04-26T13:48:08.153Z,4.07
2023-04-26T13:50:50.696Z,3.58
2023-04-26T13:53:19.843Z,4.68
2023-04-26T13:55:48.027Z,4.20
2023-04-26T13:58:16.407Z,3.75
2023-04-26T14:00:46.992Z,4.28
2023-04-26T14:03:15.305Z,2.95
2023-04-26T14:05:44.731Z,3.90
2023-04-26T14:08:13.706Z,3.92
2023-04-26T14:10:42.072Z,3.97
2023-04-26T14:13:10.091Z,2.97
2023-04-26T14:15:38.117Z,3.38
2023-04-26T14:18:06.329Z,3.30
2023-04-26T14:20:34.357Z,3.10
2023-04-26T14:23:04.412Z,4.30
2023-04-26T14:25:32.696Z,3.58
2023-04-26T14:28:00.752Z,3.33
2023-04-26T14:30:29.856Z,3.05
2023-04-26T14:32:58.878Z,3.75
2023-04-26T14:35:27.448Z,3.78
2023-04-26T14:37:55.461Z,3.40
2023-04-26T14:40:25.237Z,3.53
2023-04-26T14:42:53.384Z,4.03
2023-04-26T14:45:25.579Z,3.70
2023-04-26T14:48:02.402Z,3.25
2023-04-26T14:50:31.043Z,3.50
2023-04-26T14:53:03.493Z,3.57
2023-04-26T14:55:34.551Z,3.47
2023-04-26T14:58:05.725Z,2.30
2023-04-26T15:00:34.133Z,3.47
2023-04-26T15:03:03.327Z,4.40
2023-04-26T15:05:32.974Z,3.07
2023-04-26T15:08:01.289Z,3.40
2023-04-26T15:10:29.920Z,3.08
2023-04-26T15:12:59.427Z,2.73
2023-04-26T15:15:27.740Z,3.90
2023-04-26T15:17:55.856Z,3.53
2023-04-26T15:20:24.487Z,3.22
2023-04-26T15:22:52.581Z,3.35
2023-04-26T15:25:21.181Z,4.00
2023-04-26T15:27:50.369Z,3.83
2023-04-26T15:30:19.855Z,3.33
2023-04-26T15:32:50.054Z,3.50
2023-04-26T15:35:18.827Z,3.37
2023-04-26T15:37:48.168Z,3.30
2023-04-26T15:40:17.418Z,3.05
2023-04-26T15:42:46.773Z,3.00
2023-04-26T15:45:15.421Z,2.07
2023-04-26T15:47:47.351Z,3.20
2023-04-26T15:50:18.717Z,3.30
2023-04-26T15:52:54.443Z,3.50
2023-04-26T15:55:40.206Z,2.97
2023-04-26T15:58:16.998Z,3.00
2023-04-26T16:00:51.877Z,3.20
2023-04-26T16:03:24.274Z,3.88
2023-04-26T16:05:54.950Z,3.75
2023-04-26T16:08:48.596Z,3.27
2023-04-26T16:11:25.775Z,3.40
2023-04-26T16:13:57.334Z,3.13
2023-04-26T16:16:37.153Z,3.47
2023-04-26T16:19:19.753Z,3.00
2023-04-26T16:22:03.872Z,3.50
2023-04-26T16:24:34.049Z,2.83
2023-04-26T16:27:02.965Z,3.03
2023-04-26T16:29:32.033Z,2.20
2023-04-26T16:32:03.748Z,2.50
2023-04-26T16:34:34.207Z,2.10
2023-04-26T16:37:02.425Z,2.47
2023-04-26T16:39:36.559Z,2.67
2023-04-26T16:42:07.323Z,2.40
2023-04-26T16:44:35.319Z,2.73
2023-04-26T16:47:04.000Z,2.20
2023-04-26T16:49:34.249Z,2.50
2023-04-26T16:52:02.140Z,2.40
2023-04-26T16:54:30.282Z,2.70
2023-04-26T16:56:58.308Z,2.60
2023-04-26T16:59:27.546Z,2.80
2023-04-26T17:01:55.859Z,2.53
2023-04-26T17:04:25.030Z,2.43
2023-04-26T17:06:54.944Z,2.90
2023-04-26T17:09:23.622Z,3.07
2023-04-26T17:11:52.307Z,2.30
2023-04-26T17:14:20.586Z,2.60
2023-04-26T17:16:48.585Z,2.60
2023-04-26T17:19:19.314Z,3.07
2023-04-26T17:21:47.445Z,2.77
2023-04-26T17:24:17.650Z,2.60
2023-04-26T17:26:46.604Z,2.33
2023-04-26T17:29:17.212Z,2.27
2023-04-26T17:31:47.292Z,2.33
2023-04-26T17:34:15.293Z,2.70
2023-04-26T17:36:45.530Z,2.27
2023-04-26T17:39:13.956Z,2.77
2023-04-26T17:41:44.168Z,2.53
2023-04-26T17:44:13.078Z,2.40
2023-04-26T17:46:42.671Z,2.73
2023-04-26T17:49:11.235Z,2.90
2023-04-26T17:51:40.050Z,2.27
2023-04-26T17:54:11.070Z,2.60
2023-04-26T17:56:39.292Z,2.70
2023-04-26T17:59:10.798Z,2.70
2023-04-26T18:01:43.419Z,2.57
2023-04-26T18:04:20.937Z,2.63
2023-04-26T18:06:49.155Z,2.80
2023-04-26T18:09:17.831Z,2.30
2023-04-26T18:11:51.892Z,1.87
2023-04-26T18:14:31.332Z,2.30
2023-04-26T18:17:01.675Z,2.33
2023-04-26T18:19:31.090Z,2.20
2023-04-26T18:21:59.575Z,2.43
2023-04-26T18:24:29.110Z,2.13
2023-04-26T18:26:58.151Z,2.53
2023-04-26T18:29:26.174Z,2.30
2023-04-26T18:31:55.831Z,2.43
2023-04-26T18:34:24.047Z,2.47
2023-04-26T18:36:52.037Z,2.20
2023-04-26T18:39:20.023Z,2.33
2023-04-26T18:41:48.318Z,1.97
2023-04-26T18:44:19.073Z,2.00
2023-04-26T18:46:47.218Z,2.10
2023-04-26T18:49:18.778Z,2.83
2023-04-26T18:51:46.990Z,2.10
2023-04-26T18:54:15.438Z,2.63
2023-04-26T18:56:44.094Z,2.70
2023-04-26T18:59:12.468Z,2.50
2023-04-26T19:01:42.873Z,2.60
2023-04-26T19:04:11.721Z,3.47
2023-04-26T19:06:46.014Z,3.20
2023-04-26T19:09:19.909Z,2.80
2023-04-26T19:11:48.145Z,1.93
2023-04-26T19:14:16.247Z,2.63
2023-04-26T19:16:44.294Z,3.47
2023-04-26T19:19:13.872Z,2.73
2023-04-26T19:21:43.422Z,2.50
2023-04-26T19:24:11.662Z,2.73
2023-04-26T19:26:39.734Z,3.30
2023-04-26T19:29:08.169Z,3.30
2023-04-26T19:31:36.609Z,4.53
2023-04-26T19:34:05.224Z,4.10
2023-04-26T19:36:34.891Z,4.10
2023-04-26T19:39:04.779Z,4.00
2023-04-26T19:41:32.916Z,4.03
2023-04-26T19:44:01.533Z,3.57
2023-04-26T19:46:29.711Z,3.60
2023-04-26T19:48:57.724Z,4.80
2023-04-26T19:51:25.904Z,4.87
2023-04-26T19:53:54.294Z,4.33
2023-04-26T19:56:29.735Z,3.80
2023-04-26T19:59:17.688Z,3.40
2023-04-26T20:01:45.993Z,3.67
2023-04-26T20:04:14.570Z,3.60
2023-04-26T20:06:42.784Z,3.60
2023-04-26T20:09:11.245Z,3.40
2023-04-26T20:11:40.621Z,3.37
2023-04-26T20:14:09.161Z,2.83
2023-04-26T20:16:37.296Z,3.50
2023-04-26T20:19:06.108Z,2.77
2023-04-26T20:21:36.873Z,3.00
2023-04-26T20:24:05.457Z,3.10
2023-04-26T20:26:33.563Z,3.53
2023-04-26T20:29:03.003Z,3.63
2023-04-26T20:31:31.132Z,3.30
2023-04-26T20:34:00.679Z,3.57
2023-04-26T20:36:29.042Z,3.67
2023-04-26T20:38:57.103Z,3.43
2023-04-26T20:41:25.458Z,3.30
2023-04-26T20:43:53.898Z,3.40
2023-04-26T20:46:23.703Z,4.27
2023-04-26T20:48:52.130Z,3.90
2023-04-26T20:51:20.312Z,3.50
2023-04-26T20:53:48.381Z,3.67
2023-04-26T20:56:16.505Z,4.17
2023-04-26T20:58:44.635Z,4.07
2023-04-26T21:01:12.584Z,4.20
2023-04-26T21:03:42.438Z,3.80
2023-04-26T21:06:10.791Z,3.53
2023-04-26T21:08:39.060Z,3.63
2023-04-26T21:11:07.110Z,3.70
2023-04-26T21:13:35.281Z,3.63
2023-04-26T21:16:03.794Z,3.20
2023-04-26T21:18:31.893Z,3.63
2023-04-26T21:21:01.644Z,3.40
2023-04-26T21:23:30.246Z,3.40
2023-04-26T21:25:58.214Z,3.70
2023-04-26T21:28:26.220Z,3.60
2023-04-26T21:31:04.308Z,3.27
2023-04-26T21:33:33.081Z,3.40
2023-04-26T21:36:05.462Z,3.50
2023-04-26T21:38:36.445Z,3.63
2023-04-26T21:41:04.873Z,3.50
2023-04-26T21:43:32.968Z,3.47
2023-04-26T21:46:03.685Z,2.93
2023-04-26T21:48:31.726Z,3.43
2023-04-26T21:50:59.873Z,3.67
2023-04-26T21:53:29.768Z,3.83
2023-04-26T21:55:57.927Z,3.90
2023-04-26T21:58:26.126Z,2.87
2023-04-26T22:00:54.611Z,3.60
2023-04-26T22:03:22.871Z,3.60
2023-04-26T22:05:51.286Z,3.80
2023-04-26T22:08:19.609Z,3.37
2023-04-26T22:10:49.085Z,2.90
2023-04-26T22:13:17.255Z,2.87
2023-04-26T22:15:45.613Z,3.00
2023-04-26T22:18:13.777Z,3.10
2023-04-26T22:20:42.022Z,3.63
2023-04-26T22:23:10.610Z,3.60
2023-04-26T22:25:39.386Z,3.77
2023-04-26T22:28:08.739Z,3.70
2023-04-26T22:30:36.947Z,3.40
2023-04-26T22:33:07.013Z,3.03
2023-04-26T22:35:36.358Z,2.90
2023-04-26T22:38:04.736Z,3.00
2023-04-26T22:40:33.390Z,2.93
2023-04-26T22:43:03.711Z,3.00
2023-04-26T22:45:33.686Z,3.40
2023-04-26T22:48:03.048Z,3.40
2023-04-26T22:50:31.367Z,5.00
2023-04-26T22:52:59.458Z,5.30
2023-04-26T22:55:27.836Z,4.93
2023-04-26T22:57:55.856Z,3.60
2023-04-26T23:00:25.877Z,3.30
2023-04-26T23:02:55.914Z,4.33
2023-04-26T23:05:24.315Z,4.50
2023-04-26T23:07:52.540Z,4.53
2023-04-26T23:10:21.137Z,4.70
2023-04-26T23:12:50.774Z,4.23
2023-04-26T23:15:18.848Z,3.63
2023-04-26T23:17:47.087Z,3.20
2023-04-26T23:20:16.612Z,3.10
2023-04-26T23:22:44.911Z,3.93
2023-04-26T23:25:12.820Z,3.23
2023-04-26T23:27:41.106Z,3.43
2023-04-26T23:30:09.907Z,3.50
2023-04-26T23:32:37.895Z,3.47
2023-04-26T23:35:06.752Z,3.30
2023-04-26T23:37:36.310Z,3.43
2023-04-26T23:40:06.479Z,3.60
2023-04-26T23:42:34.420Z,3.70
2023-04-26T23:45:02.570Z,3.20
2023-04-26T23:47:31.946Z,3.27
2023-04-26T23:50:00.394Z,3.30
2023-04-26T23:52:28.628Z,3.27
2023-04-26T23:54:57.978Z,3.50
2023-04-26T23:57:26.097Z,3.07
2023-04-26T23:59:54.219Z,3.60
